sensor_id;sensor_type;location;lat;lon;timestamp;pressure;altitude;pressure_sealevel;temperature;humidity
44313;BME280;38833;51.142;-0.974;2022-11-12T00:00:30;101203.55;;;24.54;35.66
44313;BME280;38833;51.142;-0.974;2022-11-12T00:03:04;101205.34;;;24.76;35.54
44313;BME280;38833;51.142;-0.974;2022-11-12T00:05:37;101202.62;;;24.53;35.81
44313;BME280;38833;51.142;-0.974;2022-11-12T00:08:11;101199.90;;;24.48;35.78
44313;BME280;38833;51.142;-0.974;2022-11-12T00:10:44;101203.11;;;24.67;35.79
44313;BME280;38833;51.142;-0.974;2022-11-12T00:13:18;101204.84;;;24.18;35.77
44313;BME280;38833;51.142;-0.974;2022-11-12T00:15:51;101203.29;;;24.70;35.61
44313;BME280;38833;51.142;-0.974;2022-11-12T00:18:24;101199.22;;;24.45;35.56
44313;BME280;38833;51.142;-0.974;2022-11-12T00:20:57;101199.18;;;24.43;35.52
44313;BME280;38833;51.142;-0.974;2022-11-12T00:23:30;101199.58;;;24.35;35.56
44313;BME280;38833;51.142;-0.974;2022-11-12T00:26:04;101198.38;;;24.17;35.73
44313;BME280;38833;51.142;-0.974;2022-11-12T00:28:37;101200.25;;;24.59;35.56
44313;BME280;38833;51.142;-0.974;2022-11-12T00:31:11;101202.21;;;24.47;35.64
44313;BME280;38833;51.142;-0.974;2022-11-12T00:33:44;101198.92;;;24.11;35.66
44313;BME280;38833;51.142;-0.974;2022-11-12T00:36:17;101199.04;;;24.33;35.75
44313;BME280;38833;51.142;-0.974;2022-11-12T00:38:50;101197.52;;;24.36;35.61
44313;BME280;38833;51.142;-0.974;2022-11-12T00:41:23;101197.56;;;24.37;35.55
44313;BME280;38833;51.142;-0.974;2022-11-12T00:43:57;101195.64;;;24.54;35.70
44313;BME280;38833;51.142;-0.974;2022-11-12T00:46:30;101198.30;;;24.51;35.61
44313;BME280;38833;51.142;-0.974;2022-11-12T00:49:03;101198.98;;;24.03;35.52
44313;BME280;38833;51.142;-0.974;2022-11-12T00:51:37;101203.29;;;24.29;35.52
44313;BME280;38833;51.142;-0.974;2022-11-12T00:54:10;101200.77;;;24.22;35.61
44313;BME280;38833;51.142;-0.974;2022-11-12T00:56:45;101197.03;;;24.13;35.69
44313;BME280;38833;51.142;-0.974;2022-11-12T00:59:19;101190.59;;;23.86;35.60
44313;BME280;38833;51.142;-0.974;2022-11-12T01:01:52;101186.33;;;24.02;35.77
44313;BME280;38833;51.142;-0.974;2022-11-12T01:04:25;101183.18;;;24.07;35.68
44313;BME280;38833;51.142;-0.974;2022-11-12T01:06:58;101182.67;;;24.08;35.60
44313;BME280;38833;51.142;-0.974;2022-11-12T01:09:31;101182.46;;;24.30;35.58
44313;BME280;38833;51.142;-0.974;2022-11-12T01:12:05;101179.87;;;24.04;35.56
44313;BME280;38833;51.142;-0.974;2022-11-12T01:14:38;101176.34;;;24.00;35.56
44313;BME280;38833;51.142;-0.974;2022-11-12T01:17:11;101175.16;;;24.00;35.56
44313;BME280;38833;51.142;-0.974;2022-11-12T01:19:44;101173.28;;;24.08;35.43
44313;BME280;38833;51.142;-0.974;2022-11-12T01:22:17;101165.78;;;23.95;35.55
44313;BME280;38833;51.142;-0.974;2022-11-12T01:24:51;101165.04;;;23.99;35.53
44313;BME280;38833;51.142;-0.974;2022-11-12T01:27:24;101165.19;;;23.93;35.57
44313;BME280;38833;51.142;-0.974;2022-11-12T01:29:57;101165.05;;;23.91;35.56
44313;BME280;38833;51.142;-0.974;2022-11-12T01:32:34;101165.63;;;23.97;35.41
44313;BME280;38833;51.142;-0.974;2022-11-12T01:35:07;101164.24;;;24.04;35.35
44313;BME280;38833;51.142;-0.974;2022-11-12T01:37:41;101167.45;;;24.23;35.35
44313;BME280;38833;51.142;-0.974;2022-11-12T01:40:14;101164.91;;;23.97;35.38
44313;BME280;38833;51.142;-0.974;2022-11-12T01:42:50;101164.28;;;23.99;35.25
44313;BME280;38833;51.142;-0.974;2022-11-12T01:45:24;101163.95;;;23.91;35.43
44313;BME280;38833;51.142;-0.974;2022-11-12T01:47:57;101163.21;;;23.97;35.33
44313;BME280;38833;51.142;-0.974;2022-11-12T01:50:33;101164.55;;;23.93;35.32
44313;BME280;38833;51.142;-0.974;2022-11-12T01:53:09;101168.69;;;23.95;35.26
44313;BME280;38833;51.142;-0.974;2022-11-12T01:55:44;101166.13;;;23.90;35.28
44313;BME280;38833;51.142;-0.974;2022-11-12T01:58:19;101162.54;;;23.87;35.32
44313;BME280;38833;51.142;-0.974;2022-11-12T02:00:54;101165.44;;;23.87;35.30
44313;BME280;38833;51.142;-0.974;2022-11-12T02:03:28;101161.58;;;24.06;35.32
44313;BME280;38833;51.142;-0.974;2022-11-12T02:06:05;101160.24;;;23.82;35.34
44313;BME280;38833;51.142;-0.974;2022-11-12T02:08:40;101161.54;;;23.81;35.29
44313;BME280;38833;51.142;-0.974;2022-11-12T02:11:15;101157.60;;;23.52;35.37
44313;BME280;38833;51.142;-0.974;2022-11-12T02:13:50;101162.31;;;23.45;35.30
44313;BME280;38833;51.142;-0.974;2022-11-12T02:16:27;101166.71;;;23.86;35.53
44313;BME280;38833;51.142;-0.974;2022-11-12T02:19:03;101163.52;;;23.58;35.47
44313;BME280;38833;51.142;-0.974;2022-11-12T02:21:37;101160.58;;;23.55;35.57
44313;BME280;38833;51.142;-0.974;2022-11-12T02:24:43;101160.18;;;23.79;35.47
44313;BME280;38833;51.142;-0.974;2022-11-12T02:27:16;101151.45;;;23.70;35.27
44313;BME280;38833;51.142;-0.974;2022-11-12T02:29:49;101149.11;;;23.62;35.37
44313;BME280;38833;51.142;-0.974;2022-11-12T02:32:22;101142.73;;;23.57;35.33
44313;BME280;38833;51.142;-0.974;2022-11-12T02:34:55;101136.94;;;23.66;35.57
44313;BME280;38833;51.142;-0.974;2022-11-12T02:37:29;101140.03;;;23.53;35.38
44313;BME280;38833;51.142;-0.974;2022-11-12T02:40:03;101142.54;;;23.74;35.38
44313;BME280;38833;51.142;-0.974;2022-11-12T02:42:36;101145.64;;;23.78;35.38
44313;BME280;38833;51.142;-0.974;2022-11-12T02:45:09;101139.05;;;23.54;35.34
44313;BME280;38833;51.142;-0.974;2022-11-12T02:47:43;101142.13;;;23.72;35.35
44313;BME280;38833;51.142;-0.974;2022-11-12T02:50:17;101141.60;;;23.49;35.30
44313;BME280;38833;51.142;-0.974;2022-11-12T02:52:50;101137.11;;;23.80;35.19
44313;BME280;38833;51.142;-0.974;2022-11-12T02:55:23;101141.50;;;23.58;35.13
44313;BME280;38833;51.142;-0.974;2022-11-12T02:57:57;101145.41;;;23.48;35.22
44313;BME280;38833;51.142;-0.974;2022-11-12T03:00:30;101148.04;;;23.58;35.09
44313;BME280;38833;51.142;-0.974;2022-11-12T03:03:03;101144.65;;;23.70;34.89
44313;BME280;38833;51.142;-0.974;2022-11-12T03:05:37;101145.25;;;23.82;35.03
44313;BME280;38833;51.142;-0.974;2022-11-12T03:08:10;101145.00;;;23.49;35.13
44313;BME280;38833;51.142;-0.974;2022-11-12T03:10:43;101135.30;;;23.68;35.17
44313;BME280;38833;51.142;-0.974;2022-11-12T03:13:17;101133.77;;;23.58;35.32
44313;BME280;38833;51.142;-0.974;2022-11-12T03:15:58;101129.84;;;23.63;35.16
44313;BME280;38833;51.142;-0.974;2022-11-12T03:18:32;101132.51;;;23.31;35.32
44313;BME280;38833;51.142;-0.974;2022-11-12T03:21:05;101128.61;;;23.43;35.12
44313;BME280;38833;51.142;-0.974;2022-11-12T03:23:39;101123.42;;;23.82;35.17
44313;BME280;38833;51.142;-0.974;2022-11-12T03:26:12;101117.31;;;23.39;35.13
44313;BME280;38833;51.142;-0.974;2022-11-12T03:28:45;101116.44;;;23.54;35.20
44313;BME280;38833;51.142;-0.974;2022-11-12T03:31:18;101118.91;;;23.32;35.19
44313;BME280;38833;51.142;-0.974;2022-11-12T03:33:52;101117.17;;;23.75;35.18
44313;BME280;38833;51.142;-0.974;2022-11-12T03:36:25;101112.51;;;23.71;35.28
44313;BME280;38833;51.142;-0.974;2022-11-12T03:38:58;101106.82;;;23.45;35.24
44313;BME280;38833;51.142;-0.974;2022-11-12T03:41:31;101106.97;;;23.45;35.47
44313;BME280;38833;51.142;-0.974;2022-11-12T03:44:04;101106.22;;;23.57;35.35
44313;BME280;38833;51.142;-0.974;2022-11-12T03:46:37;101107.04;;;23.51;35.43
44313;BME280;38833;51.142;-0.974;2022-11-12T03:49:11;101113.01;;;23.25;35.40
44313;BME280;38833;51.142;-0.974;2022-11-12T03:51:44;101112.68;;;23.37;35.53
44313;BME280;38833;51.142;-0.974;2022-11-12T03:54:17;101109.52;;;23.41;35.48
44313;BME280;38833;51.142;-0.974;2022-11-12T03:56:50;101112.03;;;23.48;35.37
44313;BME280;38833;51.142;-0.974;2022-11-12T03:59:23;101117.70;;;23.40;35.46
44313;BME280;38833;51.142;-0.974;2022-11-12T04:01:57;101115.90;;;23.61;35.57
44313;BME280;38833;51.142;-0.974;2022-11-12T04:04:30;101116.60;;;23.37;35.50
44313;BME280;38833;51.142;-0.974;2022-11-12T04:07:03;101114.07;;;23.38;35.46
44313;BME280;38833;51.142;-0.974;2022-11-12T04:09:36;101113.24;;;23.38;35.41
44313;BME280;38833;51.142;-0.974;2022-11-12T04:12:09;101107.83;;;23.03;35.27
44313;BME280;38833;51.142;-0.974;2022-11-12T04:14:43;101105.54;;;23.16;35.37
44313;BME280;38833;51.142;-0.974;2022-11-12T04:17:16;101106.84;;;23.07;35.48
44313;BME280;38833;51.142;-0.974;2022-11-12T04:19:49;101100.38;;;23.10;35.42
44313;BME280;38833;51.142;-0.974;2022-11-12T04:22:22;101100.85;;;23.18;35.29
44313;BME280;38833;51.142;-0.974;2022-11-12T04:24:55;101098.14;;;23.13;35.33
44313;BME280;38833;51.142;-0.974;2022-11-12T04:27:30;101099.29;;;22.92;35.30
44313;BME280;38833;51.142;-0.974;2022-11-12T04:30:05;101104.00;;;23.30;35.37
44313;BME280;38833;51.142;-0.974;2022-11-12T04:32:39;101102.67;;;23.30;35.36
44313;BME280;38833;51.142;-0.974;2022-11-12T04:35:13;101104.96;;;23.08;35.35
44313;BME280;38833;51.142;-0.974;2022-11-12T04:37:47;101098.44;;;23.32;35.30
44313;BME280;38833;51.142;-0.974;2022-11-12T04:40:22;101104.50;;;23.27;35.33
44313;BME280;38833;51.142;-0.974;2022-11-12T04:42:56;101105.47;;;23.35;35.23
44313;BME280;38833;51.142;-0.974;2022-11-12T04:45:29;101113.00;;;23.36;35.22
44313;BME280;38833;51.142;-0.974;2022-11-12T04:48:03;101110.87;;;23.32;35.26
44313;BME280;38833;51.142;-0.974;2022-11-12T04:50:37;101113.29;;;22.89;35.23
44313;BME280;38833;51.142;-0.974;2022-11-12T04:53:10;101109.75;;;23.35;35.20
44313;BME280;38833;51.142;-0.974;2022-11-12T04:55:43;101106.80;;;23.28;35.27
44313;BME280;38833;51.142;-0.974;2022-11-12T04:58:17;101103.52;;;23.26;35.30
44313;BME280;38833;51.142;-0.974;2022-11-12T05:02:43;101097.25;;;23.28;35.23
44313;BME280;38833;51.142;-0.974;2022-11-12T05:05:17;101099.38;;;23.13;35.12
44313;BME280;38833;51.142;-0.974;2022-11-12T05:07:51;101098.73;;;23.11;35.13
44313;BME280;38833;51.142;-0.974;2022-11-12T05:10:24;101100.21;;;23.37;35.05
44313;BME280;38833;51.142;-0.974;2022-11-12T05:12:57;101103.81;;;23.27;35.17
44313;BME280;38833;51.142;-0.974;2022-11-12T05:15:32;101103.26;;;22.97;35.30
44313;BME280;38833;51.142;-0.974;2022-11-12T05:18:06;101104.61;;;23.15;35.36
44313;BME280;38833;51.142;-0.974;2022-11-12T05:20:39;101105.35;;;22.92;35.40
44313;BME280;38833;51.142;-0.974;2022-11-12T05:23:12;101102.16;;;23.11;35.37
44313;BME280;38833;51.142;-0.974;2022-11-12T05:25:46;101101.58;;;23.05;35.43
44313;BME280;38833;51.142;-0.974;2022-11-12T05:28:19;101101.03;;;23.12;35.36
44313;BME280;38833;51.142;-0.974;2022-11-12T05:30:53;101105.22;;;23.13;35.35
44313;BME280;38833;51.142;-0.974;2022-11-12T05:33:26;101107.96;;;22.86;35.42
44313;BME280;38833;51.142;-0.974;2022-11-12T05:36:06;101100.56;;;23.24;35.53
44313;BME280;38833;51.142;-0.974;2022-11-12T05:38:39;101099.32;;;23.00;35.43
44313;BME280;38833;51.142;-0.974;2022-11-12T05:41:12;101099.46;;;22.80;35.43
44313;BME280;38833;51.142;-0.974;2022-11-12T05:43:46;101096.37;;;22.89;35.61
44313;BME280;38833;51.142;-0.974;2022-11-12T05:46:19;101092.60;;;22.94;35.51
44313;BME280;38833;51.142;-0.974;2022-11-12T05:48:52;101092.07;;;23.00;35.45
44313;BME280;38833;51.142;-0.974;2022-11-12T05:51:25;101089.38;;;22.95;35.49
44313;BME280;38833;51.142;-0.974;2022-11-12T05:53:59;101086.12;;;23.01;35.35
44313;BME280;38833;51.142;-0.974;2022-11-12T05:56:32;101085.10;;;23.07;35.33
44313;BME280;38833;51.142;-0.974;2022-11-12T05:59:07;101081.26;;;23.09;35.26
44313;BME280;38833;51.142;-0.974;2022-11-12T06:01:41;101078.36;;;22.85;35.31
44313;BME280;38833;51.142;-0.974;2022-11-12T06:04:15;101075.43;;;23.05;35.29
44313;BME280;38833;51.142;-0.974;2022-11-12T06:06:48;101075.67;;;22.98;35.39
44313;BME280;38833;51.142;-0.974;2022-11-12T06:09:21;101079.93;;;22.96;35.38
44313;BME280;38833;51.142;-0.974;2022-11-12T06:11:55;101082.72;;;22.96;35.37
44313;BME280;38833;51.142;-0.974;2022-11-12T06:14:28;101086.28;;;23.14;35.50
44313;BME280;38833;51.142;-0.974;2022-11-12T06:17:01;101088.98;;;23.32;35.57
44313;BME280;38833;51.142;-0.974;2022-11-12T06:19:34;101087.47;;;22.76;35.67
44313;BME280;38833;51.142;-0.974;2022-11-12T06:22:07;101088.04;;;22.85;35.51
44313;BME280;38833;51.142;-0.974;2022-11-12T06:24:40;101087.29;;;22.73;35.69
44313;BME280;38833;51.142;-0.974;2022-11-12T06:27:13;101084.03;;;23.06;35.59
44313;BME280;38833;51.142;-0.974;2022-11-12T06:29:47;101083.21;;;22.80;35.60
44313;BME280;38833;51.142;-0.974;2022-11-12T06:32:20;101078.96;;;22.74;35.67
44313;BME280;38833;51.142;-0.974;2022-11-12T06:34:53;101077.73;;;22.64;35.72
44313;BME280;38833;51.142;-0.974;2022-11-12T06:37:26;101079.46;;;22.74;35.61
44313;BME280;38833;51.142;-0.974;2022-11-12T06:39:59;101083.62;;;22.84;35.55
44313;BME280;38833;51.142;-0.974;2022-11-12T06:42:33;101084.75;;;22.88;35.65
44313;BME280;38833;51.142;-0.974;2022-11-12T06:45:07;101088.03;;;22.22;35.98
44313;BME280;38833;51.142;-0.974;2022-11-12T06:47:41;101091.95;;;22.93;35.63
44313;BME280;38833;51.142;-0.974;2022-11-12T06:50:14;101099.76;;;23.02;35.63
44313;BME280;38833;51.142;-0.974;2022-11-12T06:52:48;101111.35;;;22.61;35.74
44313;BME280;38833;51.142;-0.974;2022-11-12T06:55:21;101113.71;;;22.90;35.87
44313;BME280;38833;51.142;-0.974;2022-11-12T06:57:54;101121.04;;;22.96;35.96
44313;BME280;38833;51.142;-0.974;2022-11-12T07:00:28;101121.83;;;23.28;35.98
44313;BME280;38833;51.142;-0.974;2022-11-12T07:03:05;101121.05;;;22.89;36.12
44313;BME280;38833;51.142;-0.974;2022-11-12T07:05:38;101125.19;;;22.98;36.12
44313;BME280;38833;51.142;-0.974;2022-11-12T07:08:11;101125.59;;;23.04;36.22
44313;BME280;38833;51.142;-0.974;2022-11-12T07:10:44;101118.67;;;23.37;36.17
44313;BME280;38833;51.142;-0.974;2022-11-12T07:13:17;101115.58;;;23.20;36.27
44313;BME280;38833;51.142;-0.974;2022-11-12T07:15:51;101119.87;;;23.34;36.26
44313;BME280;38833;51.142;-0.974;2022-11-12T07:18:24;101124.41;;;23.38;36.34
44313;BME280;38833;51.142;-0.974;2022-11-12T07:20:58;101130.45;;;23.44;36.43
44313;BME280;38833;51.142;-0.974;2022-11-12T07:23:33;101133.82;;;23.77;36.45
44313;BME280;38833;51.142;-0.974;2022-11-12T07:26:12;101138.13;;;23.70;36.39
44313;BME280;38833;51.142;-0.974;2022-11-12T07:28:46;101141.83;;;23.82;36.28
44313;BME280;38833;51.142;-0.974;2022-11-12T07:31:20;101144.32;;;23.62;36.28
44313;BME280;38833;51.142;-0.974;2022-11-12T07:33:54;101143.24;;;23.99;36.23
44313;BME280;38833;51.142;-0.974;2022-11-12T07:36:27;101143.76;;;23.78;36.23
44313;BME280;38833;51.142;-0.974;2022-11-12T07:39:00;101144.37;;;23.87;36.09
44313;BME280;38833;51.142;-0.974;2022-11-12T07:41:33;101143.64;;;24.18;36.07
44313;BME280;38833;51.142;-0.974;2022-11-12T07:44:06;101148.71;;;23.71;36.05
44313;BME280;38833;51.142;-0.974;2022-11-12T07:46:39;101154.39;;;24.25;36.05
44313;BME280;38833;51.142;-0.974;2022-11-12T07:49:13;101158.12;;;23.90;36.19
44313;BME280;38833;51.142;-0.974;2022-11-12T07:51:46;101160.57;;;23.99;36.09
44313;BME280;38833;51.142;-0.974;2022-11-12T07:54:19;101161.41;;;23.96;36.18
44313;BME280;38833;51.142;-0.974;2022-11-12T07:56:52;101163.86;;;23.93;36.24
44313;BME280;38833;51.142;-0.974;2022-11-12T07:59:25;101164.48;;;24.04;36.17
44313;BME280;38833;51.142;-0.974;2022-11-12T08:01:59;101163.20;;;24.15;36.01
44313;BME280;38833;51.142;-0.974;2022-11-12T08:04:32;101171.24;;;24.19;35.99
44313;BME280;38833;51.142;-0.974;2022-11-12T08:07:05;101178.22;;;24.06;35.92
44313;BME280;38833;51.142;-0.974;2022-11-12T08:09:38;101184.40;;;24.28;35.92
44313;BME280;38833;51.142;-0.974;2022-11-12T08:12:11;101182.11;;;24.11;35.86
44313;BME280;38833;51.142;-0.974;2022-11-12T08:14:44;101185.14;;;24.37;35.79
44313;BME280;38833;51.142;-0.974;2022-11-12T08:17:18;101182.08;;;24.46;35.69
44313;BME280;38833;51.142;-0.974;2022-11-12T08:19:51;101184.18;;;24.78;35.57
44313;BME280;38833;51.142;-0.974;2022-11-12T08:22:24;101182.58;;;24.78;35.57
44313;BME280;38833;51.142;-0.974;2022-11-12T08:24:58;101181.50;;;24.27;35.59
44313;BME280;38833;51.142;-0.974;2022-11-12T08:27:31;101180.28;;;24.27;35.58
44313;BME280;38833;51.142;-0.974;2022-11-12T08:30:05;101179.01;;;24.35;35.50
44313;BME280;38833;51.142;-0.974;2022-11-12T08:32:38;101176.41;;;24.34;35.49
44313;BME280;38833;51.142;-0.974;2022-11-12T08:35:11;101175.40;;;24.38;35.47
44313;BME280;38833;51.142;-0.974;2022-11-12T08:37:45;101174.77;;;24.51;35.44
44313;BME280;38833;51.142;-0.974;2022-11-12T08:40:18;101178.71;;;24.67;35.69
44313;BME280;38833;51.142;-0.974;2022-11-12T08:42:56;101183.33;;;24.44;35.51
44313;BME280;38833;51.142;-0.974;2022-11-12T08:45:31;101191.17;;;24.51;35.34
44313;BME280;38833;51.142;-0.974;2022-11-12T08:48:07;101196.24;;;24.64;35.43
44313;BME280;38833;51.142;-0.974;2022-11-12T08:50:41;101198.06;;;24.23;35.35
44313;BME280;38833;51.142;-0.974;2022-11-12T08:53:14;101200.16;;;24.48;35.35
44313;BME280;38833;51.142;-0.974;2022-11-12T08:55:48;101196.83;;;24.44;35.31
44313;BME280;38833;51.142;-0.974;2022-11-12T08:58:22;101196.89;;;24.50;35.25
44313;BME280;38833;51.142;-0.974;2022-11-12T09:00:56;101193.45;;;24.38;35.28
44313;BME280;38833;51.142;-0.974;2022-11-12T09:03:29;101187.92;;;24.31;35.35
44313;BME280;38833;51.142;-0.974;2022-11-12T09:06:04;101187.40;;;24.31;35.34
44313;BME280;38833;51.142;-0.974;2022-11-12T09:08:37;101187.77;;;24.47;35.37
44313;BME280;38833;51.142;-0.974;2022-11-12T09:11:10;101188.37;;;24.46;35.34
44313;BME280;38833;51.142;-0.974;2022-11-12T09:13:44;101191.07;;;24.21;35.33
44313;BME280;38833;51.142;-0.974;2022-11-12T09:16:17;101196.88;;;24.32;35.42
44313;BME280;38833;51.142;-0.974;2022-11-12T09:18:50;101192.49;;;24.21;35.25
44313;BME280;38833;51.142;-0.974;2022-11-12T09:21:23;101195.73;;;24.30;35.35
44313;BME280;38833;51.142;-0.974;2022-11-12T09:23:57;101194.03;;;24.32;35.27
44313;BME280;38833;51.142;-0.974;2022-11-12T09:26:30;101196.56;;;24.40;35.13
44313;BME280;38833;51.142;-0.974;2022-11-12T09:29:03;101192.51;;;24.77;34.98
44313;BME280;38833;51.142;-0.974;2022-11-12T09:31:36;101193.55;;;24.43;35.04
44313;BME280;38833;51.142;-0.974;2022-11-12T09:34:10;101191.00;;;24.66;35.06
44313;BME280;38833;51.142;-0.974;2022-11-12T09:36:43;101190.28;;;24.39;35.00
44313;BME280;38833;51.142;-0.974;2022-11-12T09:39:16;101184.51;;;24.41;34.97
44313;BME280;38833;51.142;-0.974;2022-11-12T09:41:49;101181.61;;;24.36;35.00
44313;BME280;38833;51.142;-0.974;2022-11-12T09:44:22;101180.22;;;24.30;35.05
44313;BME280;38833;51.142;-0.974;2022-11-12T09:46:59;101177.62;;;24.15;35.20
44313;BME280;38833;51.142;-0.974;2022-11-12T09:49:37;101174.41;;;24.47;35.12
44313;BME280;38833;51.142;-0.974;2022-11-12T09:52:18;101176.65;;;24.03;35.07
44313;BME280;38833;51.142;-0.974;2022-11-12T09:55:00;101180.29;;;24.63;34.90
44313;BME280;38833;51.142;-0.974;2022-11-12T09:57:37;101166.89;;;24.04;35.01
44313;BME280;38833;51.142;-0.974;2022-11-12T10:00:14;101165.43;;;24.20;35.07
44313;BME280;38833;51.142;-0.974;2022-11-12T10:02:52;101166.25;;;24.11;35.17
44313;BME280;38833;51.142;-0.974;2022-11-12T10:05:33;101168.29;;;24.00;35.31
44313;BME280;38833;51.142;-0.974;2022-11-12T10:08:24;101161.00;;;24.16;35.08
44313;BME280;38833;51.142;-0.974;2022-11-12T10:11:07;101160.88;;;24.08;35.17
44313;BME280;38833;51.142;-0.974;2022-11-12T10:14:01;101158.54;;;24.09;35.15
44313;BME280;38833;51.142;-0.974;2022-11-12T10:16:49;101161.61;;;24.17;35.38
44313;BME280;38833;51.142;-0.974;2022-11-12T10:19:41;101162.37;;;24.02;35.22
44313;BME280;38833;51.142;-0.974;2022-11-12T10:22:30;101170.36;;;23.91;35.34
44313;BME280;38833;51.142;-0.974;2022-11-12T10:25:13;101168.61;;;23.88;35.37
44313;BME280;38833;51.142;-0.974;2022-11-12T10:27:48;101167.56;;;23.98;35.22
44313;BME280;38833;51.142;-0.974;2022-11-12T10:30:23;101160.86;;;24.01;35.17
44313;BME280;38833;51.142;-0.974;2022-11-12T10:32:56;101156.43;;;24.06;35.44
44313;BME280;38833;51.142;-0.974;2022-11-12T10:35:29;101147.10;;;24.04;35.48
44313;BME280;38833;51.142;-0.974;2022-11-12T10:38:05;101145.66;;;23.73;35.53
44313;BME280;38833;51.142;-0.974;2022-11-12T10:40:40;101139.34;;;23.83;35.72
44313;BME280;38833;51.142;-0.974;2022-11-12T10:43:22;101134.10;;;23.94;35.57
44313;BME280;38833;51.142;-0.974;2022-11-12T10:46:12;101131.81;;;23.86;35.67
44313;BME280;38833;51.142;-0.974;2022-11-12T10:48:54;101131.77;;;23.75;35.82
44313;BME280;38833;51.142;-0.974;2022-11-12T10:51:30;101139.49;;;23.77;35.81
44313;BME280;38833;51.142;-0.974;2022-11-12T10:54:27;101138.53;;;23.76;35.80
44313;BME280;38833;51.142;-0.974;2022-11-12T10:57:18;101131.73;;;24.13;35.44
44313;BME280;38833;51.142;-0.974;2022-11-12T11:00:07;101134.69;;;23.68;36.06
44313;BME280;38833;51.142;-0.974;2022-11-12T11:02:45;101132.80;;;23.95;35.87
44313;BME280;38833;51.142;-0.974;2022-11-12T11:05:28;101131.75;;;23.59;36.22
44313;BME280;38833;51.142;-0.974;2022-11-12T11:08:03;101132.98;;;23.63;35.97
44313;BME280;38833;51.142;-0.974;2022-11-12T11:10:36;101135.27;;;23.41;36.18
44313;BME280;38833;51.142;-0.974;2022-11-12T11:13:26;101135.30;;;23.32;36.28
44313;BME280;38833;51.142;-0.974;2022-11-12T11:16:01;101134.53;;;23.60;36.27
44313;BME280;38833;51.142;-0.974;2022-11-12T11:18:37;101133.24;;;23.53;36.35
44313;BME280;38833;51.142;-0.974;2022-11-12T11:21:25;101126.93;;;23.72;36.12
44313;BME280;38833;51.142;-0.974;2022-11-12T11:24:11;101120.42;;;23.60;36.26
44313;BME280;38833;51.142;-0.974;2022-11-12T11:27:02;101115.54;;;23.61;36.22
44313;BME280;38833;51.142;-0.974;2022-11-12T11:29:47;101111.32;;;23.65;36.20
44313;BME280;38833;51.142;-0.974;2022-11-12T11:32:34;101114.22;;;23.38;36.18
44313;BME280;38833;51.142;-0.974;2022-11-12T11:35:20;101111.70;;;23.66;36.12
44313;BME280;38833;51.142;-0.974;2022-11-12T11:38:07;101108.03;;;23.97;35.86
44313;BME280;38833;51.142;-0.974;2022-11-12T11:40:50;101104.68;;;23.90;35.98
44313;BME280;38833;51.142;-0.974;2022-11-12T11:43:38;101108.10;;;23.56;36.11
44313;BME280;38833;51.142;-0.974;2022-11-12T11:46:32;101106.15;;;23.49;36.35
44313;BME280;38833;51.142;-0.974;2022-11-12T11:49:23;101097.42;;;24.00;36.17
44313;BME280;38833;51.142;-0.974;2022-11-12T11:52:07;101091.49;;;23.81;36.34
44313;BME280;38833;51.142;-0.974;2022-11-12T11:54:57;101085.49;;;23.72;36.47
44313;BME280;38833;51.142;-0.974;2022-11-12T11:57:41;101091.16;;;23.79;36.50
44313;BME280;38833;51.142;-0.974;2022-11-12T12:00:19;101090.30;;;23.79;36.34
44313;BME280;38833;51.142;-0.974;2022-11-12T12:03:15;101089.87;;;23.79;36.83
44313;BME280;38833;51.142;-0.974;2022-11-12T12:06:02;101085.99;;;23.52;36.58
44313;BME280;38833;51.142;-0.974;2022-11-12T12:08:51;101075.93;;;23.62;36.81
44313;BME280;38833;51.142;-0.974;2022-11-12T12:11:34;101074.23;;;23.50;36.62
44313;BME280;38833;51.142;-0.974;2022-11-12T12:14:24;101072.79;;;23.51;36.61
44313;BME280;38833;51.142;-0.974;2022-11-12T12:17:10;101068.84;;;24.00;36.48
44313;BME280;38833;51.142;-0.974;2022-11-12T12:19:58;101064.51;;;23.82;36.75
44313;BME280;38833;51.142;-0.974;2022-11-12T12:22:38;101061.22;;;23.84;36.73
44313;BME280;38833;51.142;-0.974;2022-11-12T12:25:15;101054.48;;;23.98;36.57
44313;BME280;38833;51.142;-0.974;2022-11-12T12:27:55;101057.09;;;23.99;36.41
44313;BME280;38833;51.142;-0.974;2022-11-12T12:30:35;101049.70;;;23.97;36.26
44313;BME280;38833;51.142;-0.974;2022-11-12T12:33:19;101051.71;;;23.85;36.38
44313;BME280;38833;51.142;-0.974;2022-11-12T12:35:58;101049.28;;;23.72;36.51
44313;BME280;38833;51.142;-0.974;2022-11-12T12:38:40;101043.43;;;23.57;36.53
44313;BME280;38833;51.142;-0.974;2022-11-12T12:41:20;101035.83;;;23.91;36.42
44313;BME280;38833;51.142;-0.974;2022-11-12T12:43:57;101029.87;;;24.06;36.40
44313;BME280;38833;51.142;-0.974;2022-11-12T12:46:38;101025.80;;;24.39;36.06
44313;BME280;38833;51.142;-0.974;2022-11-12T12:49:15;101025.98;;;24.12;36.71
44313;BME280;38833;51.142;-0.974;2022-11-12T12:51:50;101020.77;;;24.12;36.29
44313;BME280;38833;51.142;-0.974;2022-11-12T12:54:57;101020.48;;;23.85;36.83
44313;BME280;38833;51.142;-0.974;2022-11-12T12:57:32;101020.50;;;24.15;36.56
44313;BME280;38833;51.142;-0.974;2022-11-12T13:00:40;101013.71;;;23.70;36.59
44313;BME280;38833;51.142;-0.974;2022-11-12T13:03:52;101004.42;;;23.96;36.56
44313;BME280;38833;51.142;-0.974;2022-11-12T13:06:29;100996.43;;;23.96;36.53
44313;BME280;38833;51.142;-0.974;2022-11-12T13:09:05;100988.48;;;24.24;36.70
44313;BME280;38833;51.142;-0.974;2022-11-12T13:11:55;100987.25;;;24.06;36.59
44313;BME280;38833;51.142;-0.974;2022-11-12T13:15:12;100981.67;;;23.99;36.74
44313;BME280;38833;51.142;-0.974;2022-11-12T13:17:48;100983.47;;;23.36;36.86
44313;BME280;38833;51.142;-0.974;2022-11-12T13:21:07;100984.48;;;23.46;36.98
44313;BME280;38833;51.142;-0.974;2022-11-12T13:23:44;100984.62;;;23.81;36.72
44313;BME280;38833;51.142;-0.974;2022-11-12T13:26:52;100990.51;;;23.70;36.98
44313;BME280;38833;51.142;-0.974;2022-11-12T13:29:48;100985.46;;;23.81;36.48